createdAt,value
2022-07-30T00:01:14.010Z,16.40
2022-07-30T00:04:10.920Z,17.60
2022-07-30T00:07:07.816Z,14.40
2022-07-30T00:10:05.229Z,17.00
2022-07-30T00:13:01.941Z,21.20
2022-07-30T00:15:58.840Z,18.60
2022-07-30T00:18:55.880Z,16.00
2022-07-30T00:21:54.879Z,12.00
2022-07-30T00:24:51.603Z,15.00
2022-07-30T00:27:50.248Z,16.60
2022-07-30T00:30:47.194Z,17.20
2022-07-30T00:33:50.276Z,15.00
2022-07-30T00:36:47.644Z,17.60
2022-07-30T00:39:45.172Z,11.80
2022-07-30T00:42:44.943Z,16.80
2022-07-30T00:45:44.041Z,14.00
2022-07-30T00:48:42.418Z,17.60
2022-07-30T00:51:39.905Z,17.20
2022-07-30T00:54:36.954Z,16.40
2022-07-30T00:57:33.968Z,15.00
2022-07-30T01:00:31.723Z,16.00
2022-07-30T01:03:29.611Z,19.80
2022-07-30T01:06:27.036Z,18.60
2022-07-30T01:09:24.051Z,23.00
2022-07-30T01:12:21.900Z,24.00
2022-07-30T01:15:19.250Z,13.20
2022-07-30T01:18:16.131Z,19.40
2022-07-30T01:21:12.954Z,18.20
2022-07-30T01:24:27.647Z,23.60
2022-07-30T01:27:25.392Z,21.00
2022-07-30T01:30:24.761Z,20.60
2022-07-30T01:33:22.263Z,20.40
2022-07-30T01:36:21.021Z,21.40
2022-07-30T01:39:17.733Z,18.80
2022-07-30T01:42:15.196Z,21.20
2022-07-30T01:45:12.414Z,22.00
2022-07-30T01:48:10.186Z,18.20
2022-07-30T01:51:07.951Z,22.60
2022-07-30T01:54:07.733Z,20.00
2022-07-30T01:57:04.987Z,21.40
2022-07-30T02:00:05.706Z,22.80
2022-07-30T02:03:14.014Z,19.20
2022-07-30T02:06:41.878Z,21.00
2022-07-30T02:09:47.356Z,22.00
2022-07-30T02:12:50.331Z,20.20
2022-07-30T02:16:08.794Z,19.60
2022-07-30T02:19:07.991Z,24.40
2022-07-30T02:22:09.176Z,22.20
2022-07-30T02:25:09.174Z,25.80
2022-07-30T02:28:07.666Z,26.40
2022-07-30T02:31:17.388Z,22.80
2022-07-30T02:34:16.888Z,25.20
2022-07-30T02:37:14.545Z,22.40
2022-07-30T02:40:16.336Z,28.00
2022-07-30T02:43:17.775Z,27.20
2022-07-30T02:46:15.420Z,25.00
2022-07-30T02:49:42.244Z,25.00
2022-07-30T02:52:40.528Z,27.60
2022-07-30T02:55:38.928Z,30.60
2022-07-30T02:58:36.173Z,28.00
2022-07-30T03:01:33.634Z,28.00
2022-07-30T03:04:31.757Z,29.40
2022-07-30T03:07:29.040Z,27.40
2022-07-30T03:10:26.051Z,31.60
2022-07-30T03:13:23.251Z,30.80
2022-07-30T03:16:20.205Z,30.00
2022-07-30T03:19:17.305Z,27.40
2022-07-30T03:22:13.938Z,29.00
2022-07-30T03:25:11.071Z,26.80
2022-07-30T03:28:08.178Z,32.80
2022-07-30T03:31:05.858Z,29.40
2022-07-30T03:34:03.108Z,29.80
2022-07-30T03:37:05.125Z,24.20
2022-07-30T03:40:05.445Z,30.40
2022-07-30T03:43:02.936Z,31.00
2022-07-30T03:46:04.281Z,30.60
2022-07-30T03:49:06.026Z,24.40
2022-07-30T03:52:04.333Z,28.00
2022-07-30T03:55:02.614Z,25.40
2022-07-30T03:58:18.211Z,24.80
2022-07-30T04:01:15.304Z,27.20
2022-07-30T04:04:12.981Z,28.00
2022-07-30T04:07:10.873Z,29.80
2022-07-30T04:10:10.011Z,28.00
2022-07-30T04:13:29.931Z,30.60
2022-07-30T04:16:39.447Z,27.00
2022-07-30T04:19:46.820Z,30.00
2022-07-30T04:22:45.014Z,27.00
2022-07-30T04:25:42.477Z,34.20
2022-07-30T04:28:40.334Z,25.80
2022-07-30T04:31:40.864Z,27.80
2022-07-30T04:34:57.074Z,29.20
2022-07-30T04:38:14.446Z,33.60
2022-07-30T04:41:14.074Z,27.00
2022-07-30T04:44:40.188Z,33.20
2022-07-30T04:48:06.354Z,33.20
2022-07-30T04:51:28.897Z,32.20
2022-07-30T04:54:26.993Z,36.60
2022-07-30T04:57:25.117Z,31.80
2022-07-30T05:00:22.344Z,32.00
2022-07-30T05:03:21.357Z,33.60
2022-07-30T05:06:21.713Z,35.80
2022-07-30T05:09:19.247Z,38.80
2022-07-30T05:12:16.233Z,33.00
2022-07-30T05:15:14.213Z,35.60
2022-07-30T05:18:11.662Z,38.40
2022-07-30T05:21:12.392Z,42.40
2022-07-30T05:24:18.103Z,42.80
2022-07-30T05:27:23.219Z,47.80
2022-07-30T05:30:22.234Z,41.20
2022-07-30T05:33:38.854Z,37.00
2022-07-30T05:36:40.499Z,43.40
2022-07-30T05:39:57.233Z,41.80
2022-07-30T05:43:31.103Z,38.80
2022-07-30T05:46:31.375Z,32.00
2022-07-30T05:49:29.175Z,36.00
2022-07-30T05:52:34.968Z,43.20
2022-07-30T05:55:43.032Z,39.00
2022-07-30T05:59:00.181Z,43.20
2022-07-30T06:02:16.535Z,45.40
2022-07-30T06:05:29.412Z,43.20
2022-07-30T06:08:29.923Z,50.00
2022-07-30T06:11:27.521Z,45.60
2022-07-30T06:14:25.289Z,36.60
2022-07-30T06:17:22.053Z,48.40
2022-07-30T06:20:54.854Z,44.00
2022-07-30T06:23:57.155Z,50.40
2022-07-30T06:27:07.396Z,44.20
2022-07-30T06:30:05.634Z,49.00
2022-07-30T06:33:03.342Z,50.40
2022-07-30T06:36:00.231Z,42.60
2022-07-30T06:39:02.468Z,47.80
2022-07-30T06:42:38.921Z,44.80
2022-07-30T06:46:00.863Z,40.80
2022-07-30T06:49:07.252Z,42.40
2022-07-30T06:52:05.801Z,45.20
2022-07-30T06:55:03.637Z,44.40
2022-07-30T06:58:13.230Z,44.80
2022-07-30T07:01:30.493Z,40.60
2022-07-30T07:04:28.457Z,37.20
2022-07-30T07:07:40.644Z,43.00
2022-07-30T07:10:41.144Z,42.20
2022-07-30T07:14:04.502Z,36.00
2022-07-30T07:17:05.583Z,34.80
2022-07-30T07:20:29.212Z,37.00
2022-07-30T07:23:41.497Z,35.40
2022-07-30T07:26:52.232Z,35.60
2022-07-30T07:30:05.064Z,27.80
2022-07-30T07:33:05.358Z,35.00
2022-07-30T07:36:02.250Z,29.20
2022-07-30T07:39:02.381Z,32.40
2022-07-30T07:42:00.245Z,32.60
2022-07-30T07:44:59.757Z,32.40
2022-07-30T07:48:02.234Z,34.20
2022-07-30T07:51:47.636Z,28.80
2022-07-30T07:54:42.495Z,23.20
2022-07-30T07:57:42.920Z,26.00
2022-07-30T08:00:41.409Z,31.00
2022-07-30T08:03:39.382Z,21.00
2022-07-30T08:06:54.718Z,25.80
2022-07-30T08:10:11.209Z,26.40
2022-07-30T08:13:51.521Z,23.40
2022-07-30T08:17:08.792Z,23.00
2022-07-30T08:20:33.800Z,25.80
2022-07-30T08:23:31.848Z,24.80
2022-07-30T08:26:29.095Z,26.60
2022-07-30T08:29:26.436Z,24.00
2022-07-30T08:32:23.660Z,19.80
2022-07-30T08:35:21.625Z,22.80
2022-07-30T08:38:19.326Z,20.00
2022-07-30T08:41:20.990Z,17.60
2022-07-30T08:44:18.875Z,23.80
2022-07-30T08:47:19.204Z,24.20
2022-07-30T08:50:54.617Z,23.00
2022-07-30T08:54:10.531Z,20.60
2022-07-30T08:57:08.254Z,20.40
2022-07-30T09:00:07.951Z,19.40
2022-07-30T09:03:05.341Z,18.60
2022-07-30T09:06:02.579Z,22.00
2022-07-30T09:08:59.151Z,19.40
2022-07-30T09:11:56.494Z,17.00
2022-07-30T09:15:20.473Z,17.60
2022-07-30T09:18:26.910Z,17.60
2022-07-30T09:21:29.220Z,18.20
2022-07-30T09:24:46.599Z,20.60
2022-07-30T09:28:02.338Z,21.60
2022-07-30T09:31:34.154Z,19.60
2022-07-30T09:34:50.725Z,17.80
2022-07-30T09:38:17.640Z,15.00
2022-07-30T09:41:39.180Z,17.80
2022-07-30T09:44:41.254Z,15.80
2022-07-30T09:47:43.848Z,14.20
2022-07-30T09:50:50.121Z,16.80
2022-07-30T09:53:59.097Z,20.00
2022-07-30T09:57:22.828Z,19.40
2022-07-30T10:00:26.442Z,15.00
2022-07-30T10:03:46.645Z,15.00
2022-07-30T10:06:55.010Z,11.80
2022-07-30T10:10:09.759Z,12.60
2022-07-30T10:13:09.011Z,13.60
2022-07-30T10:16:11.513Z,12.20
2022-07-30T10:19:13.763Z,13.40
2022-07-30T10:22:35.028Z,12.20
2022-07-30T10:25:55.131Z,10.60
2022-07-30T10:29:12.993Z,15.60
2022-07-30T10:32:13.575Z,10.40
2022-07-30T10:35:10.900Z,9.40
2022-07-30T10:38:13.517Z,8.40
2022-07-30T10:41:43.210Z,13.00
2022-07-30T10:44:53.481Z,10.00
2022-07-30T10:47:51.542Z,10.80
2022-07-30T10:50:58.087Z,12.00
2022-07-30T10:53:55.448Z,10.20
2022-07-30T10:57:08.562Z,10.20
2022-07-30T11:00:05.573Z,9.20
2022-07-30T11:03:23.788Z,8.80
2022-07-30T11:06:39.587Z,11.40
2022-07-30T11:09:41.013Z,12.00
2022-07-30T11:12:42.304Z,12.00
2022-07-30T11:16:00.473Z,10.00
2022-07-30T11:19:56.707Z,7.60
2022-07-30T11:22:24.085Z,9.60
2022-07-30T11:25:27.549Z,9.40
2022-07-30T11:28:45.840Z,12.00
2022-07-30T11:32:07.567Z,11.60
2022-07-30T11:35:13.021Z,9.80
2022-07-30T11:38:19.300Z,10.40
2022-07-30T11:41:16.411Z,12.20
2022-07-30T11:44:26.997Z,12.20
2022-07-30T11:47:25.554Z,12.00
2022-07-30T11:50:32.699Z,12.60
2022-07-30T11:53:29.384Z,12.20
2022-07-30T11:56:26.370Z,11.00
2022-07-30T11:59:23.495Z,13.00
2022-07-30T12:02:26.225Z,11.00
2022-07-30T12:05:25.872Z,14.00
2022-07-30T12:08:33.283Z,10.75
2022-07-30T12:11:34.088Z,11.50
2022-07-30T12:14:38.851Z,12.50
2022-07-30T12:17:45.202Z,10.00
2022-07-30T12:20:42.649Z,9.25
2022-07-30T12:23:39.741Z,11.00
2022-07-30T12:26:36.467Z,13.50
2022-07-30T12:29:36.782Z,12.50
2022-07-30T12:32:33.706Z,12.20
2022-07-30T12:35:43.934Z,12.50
2022-07-30T12:38:45.853Z,13.00
2022-07-30T12:41:43.936Z,11.00
2022-07-30T12:44:44.620Z,14.25
2022-07-30T12:47:41.483Z,12.00
2022-07-30T12:50:40.399Z,11.80
2022-07-30T12:53:37.367Z,12.00
2022-07-30T12:56:35.999Z,12.00
2022-07-30T12:59:34.908Z,8.50
2022-07-30T13:02:36.411Z,13.00
2022-07-30T13:05:44.873Z,11.60
2022-07-30T13:08:57.931Z,11.00
2022-07-30T13:11:55.564Z,12.50
2022-07-30T13:14:52.538Z,12.25
2022-07-30T13:17:49.637Z,11.50
2022-07-30T13:20:46.636Z,12.50
2022-07-30T13:23:43.638Z,11.00
2022-07-30T13:26:40.871Z,11.00
2022-07-30T13:29:37.290Z,11.75
2022-07-30T13:32:35.089Z,14.50
2022-07-30T13:35:32.885Z,13.75
2022-07-30T13:38:29.852Z,12.50
2022-07-30T13:41:26.569Z,11.00
2022-07-30T13:44:23.780Z,11.25
2022-07-30T13:47:20.676Z,13.50
2022-07-30T13:50:18.043Z,13.00
2022-07-30T13:53:16.139Z,15.75
2022-07-30T13:56:13.728Z,15.50
2022-07-30T13:59:12.974Z,13.00
2022-07-30T14:02:10.368Z,12.00
2022-07-30T14:05:08.749Z,11.00
2022-07-30T14:08:06.121Z,15.25
2022-07-30T14:11:03.957Z,12.75
2022-07-30T14:14:02.058Z,13.20
2022-07-30T14:16:59.971Z,13.40
2022-07-30T14:19:57.561Z,11.60
2022-07-30T14:22:54.695Z,12.60
2022-07-30T14:25:51.633Z,13.00
2022-07-30T14:28:48.635Z,11.80
2022-07-30T14:31:46.108Z,11.80
2022-07-30T14:34:49.691Z,13.80
2022-07-30T14:37:46.727Z,12.00
2022-07-30T14:40:43.594Z,10.25
2022-07-30T14:43:40.595Z,12.50
2022-07-30T14:46:37.897Z,11.00
2022-07-30T14:49:49.638Z,10.00
2022-07-30T14:52:47.588Z,10.25
2022-07-30T14:55:44.696Z,9.50
2022-07-30T14:58:41.455Z,7.50
2022-07-30T15:01:39.053Z,6.25
2022-07-30T15:04:37.325Z,8.75
2022-07-30T15:07:34.962Z,8.00
2022-07-30T15:10:33.352Z,9.25
2022-07-30T15:13:30.437Z,6.00
2022-07-30T15:16:29.051Z,8.25
2022-07-30T15:19:26.943Z,7.50
2022-07-30T15:22:23.585Z,7.00
2022-07-30T15:25:22.205Z,7.50
2022-07-30T15:28:19.804Z,8.75
2022-07-30T15:31:16.336Z,8.25
2022-07-30T15:34:13.890Z,6.00
2022-07-30T15:37:11.117Z,8.00
2022-07-30T15:40:08.719Z,8.75
2022-07-30T15:43:10.259Z,6.00
2022-07-30T15:46:07.399Z,8.00
2022-07-30T15:49:05.069Z,7.50
2022-07-30T15:52:02.888Z,7.25
2022-07-30T15:55:00.600Z,5.00
2022-07-30T15:57:57.670Z,6.50
2022-07-30T16:00:54.572Z,8.50
2022-07-30T16:03:54.761Z,6.50
2022-07-30T16:06:57.142Z,6.75
2022-07-30T16:09:55.056Z,5.75
2022-07-30T16:12:51.894Z,5.50
2022-07-30T16:15:48.442Z,6.25
2022-07-30T16:18:45.687Z,7.25
2022-07-30T16:21:45.949Z,8.25
2022-07-30T16:24:42.677Z,6.75
2022-07-30T16:27:42.013Z,6.00
2022-07-30T16:30:49.059Z,8.00
2022-07-30T16:33:49.126Z,5.00
2022-07-30T16:36:46.813Z,7.00
2022-07-30T16:39:43.430Z,8.00
2022-07-30T16:42:40.880Z,9.00
2022-07-30T16:45:38.151Z,7.00
2022-07-30T16:48:35.769Z,7.75
2022-07-30T16:51:32.996Z,6.50
2022-07-30T16:54:30.002Z,6.75
2022-07-30T16:57:27.548Z,6.50
2022-07-30T17:00:24.915Z,7.00
2022-07-30T17:03:21.647Z,6.75
2022-07-30T17:06:18.453Z,7.00
2022-07-30T17:09:16.215Z,4.75
2022-07-30T17:12:13.593Z,4.25
2022-07-30T17:15:10.874Z,12.25
2022-07-30T17:18:08.551Z,6.50
2022-07-30T17:21:05.823Z,9.75
2022-07-30T17:24:02.555Z,6.00
2022-07-30T17:26:59.903Z,5.25
2022-07-30T17:29:57.005Z,6.00
2022-07-30T17:32:54.021Z,8.25
2022-07-30T17:35:50.964Z,8.25
2022-07-30T17:38:48.006Z,22.40
2022-07-30T17:41:59.037Z,26.20
2022-07-30T17:45:01.342Z,8.00
2022-07-30T17:47:58.715Z,18.60
2022-07-30T17:51:11.069Z,10.50
2022-07-30T17:54:11.383Z,5.25
2022-07-30T17:57:08.901Z,6.50
2022-07-30T18:00:07.965Z,8.00
2022-07-30T18:03:05.381Z,5.00
2022-07-30T18:06:02.343Z,7.00
2022-07-30T18:09:00.331Z,8.00
2022-07-30T18:11:58.227Z,6.50
2022-07-30T18:14:58.344Z,7.00
2022-07-30T18:17:55.431Z,6.00
2022-07-30T18:20:52.400Z,6.25
2022-07-30T18:23:49.503Z,6.00
2022-07-30T18:26:46.897Z,7.75
2022-07-30T18:29:44.303Z,3.00
2022-07-30T18:32:41.553Z,6.75
2022-07-30T18:35:38.595Z,3.75
2022-07-30T18:38:35.536Z,7.25
2022-07-30T18:41:32.465Z,5.50
2022-07-30T18:44:29.733Z,6.50
2022-07-30T18:47:26.399Z,6.50
2022-07-30T18:50:23.662Z,6.25
2022-07-30T18:53:21.034Z,6.00
2022-07-30T18:56:18.418Z,6.00
2022-07-30T18:59:15.326Z,7.00
2022-07-30T19:02:12.281Z,6.00
2022-07-30T19:05:09.656Z,6.00
2022-07-30T19:08:06.960Z,8.00
2022-07-30T19:11:04.520Z,6.50
2022-07-30T19:14:01.841Z,5.25
2022-07-30T19:16:59.977Z,6.50
2022-07-30T19:19:57.660Z,5.00
2022-07-30T19:23:05.574Z,7.20
2022-07-30T19:26:02.733Z,5.75
2022-07-30T19:28:59.438Z,6.00
2022-07-30T19:31:56.392Z,6.00
2022-07-30T19:34:54.058Z,6.75
2022-07-30T19:37:51.908Z,7.75
2022-07-30T19:40:49.642Z,7.00
2022-07-30T19:43:55.629Z,8.60
2022-07-30T19:46:58.442Z,7.60
2022-07-30T19:49:58.985Z,8.00
2022-07-30T19:52:59.065Z,8.25
2022-07-30T19:55:56.524Z,6.50
2022-07-30T19:58:54.528Z,9.00
2022-07-30T20:01:56.652Z,7.60
2022-07-30T20:04:53.253Z,8.00
2022-07-30T20:07:51.703Z,5.50
2022-07-30T20:10:49.825Z,6.00
2022-07-30T20:13:47.970Z,6.50
2022-07-30T20:16:45.922Z,6.50
2022-07-30T20:19:47.782Z,8.75
2022-07-30T20:22:45.507Z,7.50
2022-07-30T20:25:42.622Z,7.25
2022-07-30T20:28:44.959Z,7.25
2022-07-30T20:31:42.685Z,7.50
2022-07-30T20:34:43.706Z,6.00
2022-07-30T20:37:54.809Z,5.00
2022-07-30T20:40:53.342Z,7.60
2022-07-30T20:43:54.846Z,6.00
2022-07-30T20:46:52.914Z,5.00
2022-07-30T20:49:50.848Z,4.00
2022-07-30T20:52:48.108Z,7.00
2022-07-30T20:55:45.794Z,6.75
2022-07-30T20:58:45.919Z,5.00
2022-07-30T21:01:45.129Z,6.75
2022-07-30T21:04:46.282Z,10.60
2022-07-30T21:07:44.678Z,11.00
2022-07-30T21:10:44.646Z,9.20
2022-07-30T21:13:41.951Z,15.00
2022-07-30T21:16:40.082Z,12.60
2022-07-30T21:19:37.833Z,5.00
2022-07-30T21:22:34.889Z,9.80
2022-07-30T21:25:33.168Z,53.20
2022-07-30T21:28:35.039Z,50.40
2022-07-30T21:31:57.814Z,15.60
2022-07-30T21:34:49.623Z,7.80
2022-07-30T21:37:46.626Z,31.80
2022-07-30T21:40:43.702Z,78.60
2022-07-30T21:43:41.433Z,50.60
2022-07-30T21:46:40.523Z,10.60
2022-07-30T21:49:39.574Z,13.20
2022-07-30T21:52:36.814Z,22.80
2022-07-30T21:55:39.272Z,7.00
2022-07-30T21:58:50.600Z,18.00
2022-07-30T22:01:49.159Z,14.00
2022-07-30T22:04:47.521Z,11.00
2022-07-30T22:07:47.563Z,9.80
2022-07-30T22:10:46.325Z,62.80
2022-07-30T22:13:53.537Z,46.80
2022-07-30T22:17:04.961Z,38.00
2022-07-30T22:20:02.716Z,7.00
2022-07-30T22:23:00.707Z,61.00
2022-07-30T22:26:00.145Z,41.40
2022-07-30T22:28:57.947Z,25.80
2022-07-30T22:31:55.739Z,29.20
2022-07-30T22:34:52.938Z,17.40
2022-07-30T22:37:50.574Z,18.00
2022-07-30T22:40:47.977Z,17.20
2022-07-30T22:43:46.643Z,24.20
2022-07-30T22:46:45.714Z,14.60
2022-07-30T22:49:56.789Z,17.00
2022-07-30T22:52:58.489Z,11.80
2022-07-30T22:56:15.505Z,13.00
2022-07-30T22:59:13.920Z,11.80
2022-07-30T23:02:12.507Z,16.00
2022-07-30T23:05:10.216Z,19.60
2022-07-30T23:08:07.790Z,15.40
2022-07-30T23:11:04.502Z,10.40
2022-07-30T23:14:01.443Z,11.60
2022-07-30T23:16:58.795Z,9.80
2022-07-30T23:19:55.661Z,9.40
2022-07-30T23:22:52.760Z,9.20
2022-07-30T23:25:49.601Z,8.40
2022-07-30T23:28:47.391Z,8.60
2022-07-30T23:31:44.952Z,8.00
2022-07-30T23:34:41.842Z,8.40
2022-07-30T23:37:48.052Z,8.40
2022-07-30T23:40:47.359Z,7.00
2022-07-30T23:43:44.620Z,5.00
2022-07-30T23:46:41.374Z,8.00
2022-07-30T23:49:39.075Z,9.00
2022-07-30T23:52:37.155Z,9.40
2022-07-30T23:55:34.667Z,5.40
2022-07-30T23:58:31.788Z,8.00
